Time;durP1;ratioP1;P1;durP2;ratioP2;P2;SDS_P1;SDS_P2;PMS_P1;PMS_P2;Temp;Humidity;BMP_temperature;BMP_pressure;BME280_temperature;BME280_humidity;BME280_pressure;Samples;Min_cycle;Max_cycle;Signal;HPM_P1;HPM_P2
2022/05/27 00:01:07;;;;;;;3.22;2.17;;;;;;;;;;10275248;28;20048;-63
2022/05/27 00:06:07;;;;;;;3.20;2.45;;;;;;;;;;10275108;28;20425;-63
2022/05/27 00:11:05;;;;;;;7.30;4.10;;;;;;;;;;10275141;28;20510;-63
2022/05/27 00:16:04;;;;;;;8.15;4.05;;;;;;;;;;10274932;28;20084;-63
2022/05/27 00:21:02;;;;;;;7.10;5.18;;;;;;;;;;10275729;28;20045;-63
2022/05/27 00:26:02;;;;;;;5.88;3.83;;;;;;;;;;10274606;28;20045;-64
2022/05/27 00:31:00;;;;;;;8.57;4.10;;;;;;;;;;10277492;28;20060;-63
2022/05/27 00:35:58;;;;;;;6.35;4.00;;;;;;;;;;10281725;28;20080;-63
2022/05/27 00:40:57;;;;;;;6.30;3.88;;;;;;;;;;10281830;28;20037;-63
2022/05/27 00:46:00;;;;;;;10.23;3.67;;;;;;;;;;10281411;28;20401;-63
2022/05/27 00:50:58;;;;;;;6.28;3.20;;;;;;;;;;10281486;28;20045;-64
2022/05/27 00:55:58;;;;;;;7.68;2.47;;;;;;;;;;10280818;28;20079;-63
2022/05/27 01:00:57;;;;;;;4.97;3.03;;;;;;;;;;10281030;28;20052;-63
2022/05/27 01:05:56;;;;;;;8.23;4.22;;;;;;;;;;10280902;28;20049;-63
2022/05/27 01:10:57;;;;;;;7.13;3.88;;;;;;;;;;10280842;28;20518;-64
2022/05/27 01:16:00;;;;;;;9.40;4.65;;;;;;;;;;10280221;28;20080;-63
2022/05/27 01:21:01;;;;;;;8.10;3.60;;;;;;;;;;10280346;28;20056;-63
2022/05/27 01:26:32;;;;;;;7.50;2.03;;;;;;;;;;10280248;28;20049;-64
2022/05/27 01:31:36;;;;;;;3.15;1.60;;;;;;;;;;10279878;28;20041;-62
2022/05/27 01:36:34;;;;;;;;;;;;;;;;;;10279378;28;20079;-63
2022/05/27 01:41:37;;;;;;;3.28;1.58;;;;;;;;;;10278472;28;19960;-63
2022/05/27 01:46:38;;;;;;;3.30;1.70;;;;;;;;;;10279205;28;20085;-63
2022/05/27 01:51:39;;;;;;;4.13;2.20;;;;;;;;;;10279172;28;20045;-62
2022/05/27 01:56:41;;;;;;;7.13;2.10;;;;;;;;;;10278017;28;20080;-63
2022/05/27 02:01:42;;;;;;;2.38;1.65;;;;;;;;;;10278742;28;20049;-63
2022/05/27 02:06:43;;;;;;;5.03;3.15;;;;;;;;;;10278609;28;20103;-63
2022/05/27 02:11:43;;;;;;;5.13;2.35;;;;;;;;;;10278428;28;20482;-62
2022/05/27 02:16:46;;;;;;;4.13;2.22;;;;;;;;;;10278129;28;20080;-62
2022/05/27 02:21:47;;;;;;;3.88;2.70;;;;;;;;;;10278001;28;20048;-63
2022/05/27 02:26:48;;;;;;;7.43;2.78;;;;;;;;;;10277560;28;20175;-63
2022/05/27 02:31:50;;;;;;;2.95;2.13;;;;;;;;;;10277640;28;20041;-62
2022/05/27 02:36:51;;;;;;;4.00;2.03;;;;;;;;;;10277555;28;20083;-63
2022/05/27 02:41:57;;;;;;;4.60;2.40;;;;;;;;;;10277363;28;20081;-63
2022/05/27 02:46:59;;;;;;;2.65;2.00;;;;;;;;;;10277294;28;20044;-62
2022/05/27 02:52:01;;;;;;;6.20;4.90;;;;;;;;;;10276922;28;20052;-63
2022/05/27 02:57:02;;;;;;;3.55;2.47;;;;;;;;;;10276464;28;20087;-63
2022/05/27 03:02:06;;;;;;;3.60;2.20;;;;;;;;;;10276673;28;20084;-63
2022/05/27 03:07:04;;;;;;;;;;;;;;;;;;10277136;28;20053;-63
2022/05/27 03:12:08;;;;;;;6.07;2.13;;;;;;;;;;10276473;28;19927;-63
2022/05/27 03:17:13;;;;;;;5.67;1.93;;;;;;;;;;10276257;28;20091;-63
2022/05/27 03:22:19;;;;;;;5.10;1.90;;;;;;;;;;10276171;28;20081;-65
2022/05/27 03:27:18;;;;;;;3.80;2.17;;;;;;;;;;10275875;28;20048;-64
2022/05/27 03:32:21;;;;;;;4.20;2.17;;;;;;;;;;10276010;28;20101;-64
2022/05/27 03:37:22;;;;;;;3.05;1.92;;;;;;;;;;10275940;28;20084;-64
2022/05/27 03:42:24;;;;;;;5.75;5.18;;;;;;;;;;10276003;28;20074;-64
2022/05/27 03:47:23;;;;;;;21.17;16.75;;;;;;;;;;10275926;28;20406;-64
2022/05/27 03:52:23;;;;;;;14.98;10.95;;;;;;;;;;10275561;28;20049;-65
2022/05/27 03:57:22;;;;;;;8.15;6.25;;;;;;;;;;10275589;28;20076;-65
2022/05/27 04:02:20;;;;;;;4.50;2.10;;;;;;;;;;10275605;28;20069;-64
2022/05/27 04:07:19;;;;;;;4.03;2.53;;;;;;;;;;10279835;28;20075;-64
2022/05/27 04:12:20;;;;;;;7.72;3.97;;;;;;;;;;10283129;28;20056;-65
2022/05/27 04:17:31;;;;;;;7.15;3.15;;;;;;;;;;10282839;28;20076;-64
2022/05/27 04:22:31;;;;;;;5.82;4.60;;;;;;;;;;10282696;28;20048;-64
2022/05/27 04:27:29;;;;;;;10.23;6.30;;;;;;;;;;10280142;28;20052;-64
2022/05/27 04:32:27;;;;;;;9.25;4.07;;;;;;;;;;10282465;28;20446;-64
2022/05/27 04:37:25;;;;;;;3.08;2.65;;;;;;;;;;10282137;28;20081;-64
2022/05/27 04:42:25;;;;;;;3.25;2.58;;;;;;;;;;10281998;28;20037;-64
2022/05/27 04:47:24;;;;;;;6.43;2.80;;;;;;;;;;10281625;28;20045;-64
2022/05/27 04:52:23;;;;;;;12.07;3.42;;;;;;;;;;10281215;28;20084;-64
2022/05/27 04:57:22;;;;;;;4.00;2.63;;;;;;;;;;10265112;28;20084;-63
2022/05/27 05:02:23;;;;;;;4.47;2.55;;;;;;;;;;10274124;28;20065;-64
2022/05/27 05:07:23;;;;;;;9.23;3.70;;;;;;;;;;10277125;28;20072;-63
2022/05/27 05:12:22;;;;;;;4.15;3.10;;;;;;;;;;10268081;28;20087;-63
2022/05/27 05:17:22;;;;;;;8.70;3.92;;;;;;;;;;10275168;28;20073;-62
2022/05/27 05:22:21;;;;;;;17.77;5.18;;;;;;;;;;10272576;28;20075;-64
2022/05/27 05:27:19;;;;;;;6.60;3.95;;;;;;;;;;10279393;28;20491;-64
2022/05/27 05:32:17;;;;;;;8.02;4.47;;;;;;;;;;10277028;28;20049;-64
2022/05/27 05:37:23;;;;;;;7.80;4.57;;;;;;;;;;10276173;28;20073;-65
2022/05/27 05:42:22;;;;;;;8.77;4.25;;;;;;;;;;10278606;28;20430;-65
2022/05/27 05:47:20;;;;;;;7.10;4.28;;;;;;;;;;10276645;28;20068;-65
2022/05/27 05:52:18;;;;;;;3.95;3.33;;;;;;;;;;10274011;28;20064;-64
2022/05/27 05:57:18;;;;;;;9.00;3.72;;;;;;;;;;10274400;28;20101;-64
2022/05/27 06:02:16;;;;;;;6.85;4.47;;;;;;;;;;10278738;28;20091;-65
2022/05/27 06:07:15;;;;;;;7.60;4.10;;;;;;;;;;10276490;28;20069;-64
2022/05/27 06:12:15;;;;;;;8.10;3.75;;;;;;;;;;10277418;28;20485;-64
2022/05/27 06:17:14;;;;;;;5.65;3.72;;;;;;;;;;10278246;28;20104;-64
2022/05/27 06:22:13;;;;;;;7.97;4.28;;;;;;;;;;10274321;28;20099;-64
2022/05/27 06:27:11;;;;;;;11.55;4.60;;;;;;;;;;10272307;28;20072;-64
2022/05/27 06:37:26;;;;;;;4.22;3.20;;;;;;;;;;10276580;28;20107;-65
2022/05/27 06:42:25;;;;;;;4.70;4.10;;;;;;;;;;10277556;28;20481;-63
2022/05/27 06:47:36;;;;;;;7.75;4.25;;;;;;;;;;10277328;28;20049;-65
2022/05/27 06:52:36;;;;;;;20.65;7.20;;;;;;;;;;10277257;28;20069;-66
2022/05/27 06:57:34;;;;;;;5.50;4.35;;;;;;;;;;10275844;28;20072;-65
2022/05/27 07:02:33;;;;;;;4.65;3.70;;;;;;;;;;10276917;28;20159;-65
2022/05/27 07:07:31;;;;;;;6.50;3.88;;;;;;;;;;10276582;28;20049;-65
2022/05/27 07:12:31;;;;;;;7.90;4.60;;;;;;;;;;10276455;28;20138;-65
2022/05/27 07:17:30;;;;;;;5.15;3.50;;;;;;;;;;10274494;28;20049;-65
2022/05/27 07:22:28;;;;;;;5.25;4.75;;;;;;;;;;10276322;28;20064;-65
2022/05/27 07:27:26;;;;;;;8.77;4.05;;;;;;;;;;10275870;28;20096;-64
2022/05/27 07:32:26;;;;;;;5.93;4.38;;;;;;;;;;10276118;28;20060;-65
2022/05/27 07:37:24;;;;;;;8.27;4.72;;;;;;;;;;10275889;28;20077;-65
2022/05/27 07:42:23;;;;;;;4.75;3.95;;;;;;;;;;10281329;28;20409;-65
2022/05/27 07:47:21;;;;;;;5.05;3.90;;;;;;;;;;10284046;28;20040;-65
2022/05/27 07:52:20;;;;;;;5.97;3.95;;;;;;;;;;10283951;28;20045;-66
2022/05/27 08:02:33;;;;;;;;;;;;;;;;;;10284053;28;20048;-66
2022/05/27 08:07:32;;;;;;;10.65;5.57;;;;;;;;;;10283278;28;19920;-65
2022/05/27 08:12:31;;;;;;;5.35;4.00;;;;;;;;;;10283140;28;20075;-65
2022/05/27 08:17:29;;;;;;;5.10;4.30;;;;;;;;;;10282860;28;20149;-65
2022/05/27 08:22:27;;;;;;;5.13;4.53;;;;;;;;;;10282760;28;20068;-65
2022/05/27 08:27:27;;;;;;;7.50;4.13;;;;;;;;;;10282293;28;20045;-65
2022/05/27 08:32:25;;;;;;;17.73;11.73;;;;;;;;;;10280677;28;20407;-64
2022/05/27 08:42:44;;;;;;;8.02;5.00;;;;;;;;;;10282185;28;20056;-65
2022/05/27 08:47:44;;;;;;;9.43;4.03;;;;;;;;;;10280235;28;20060;-65
2022/05/27 08:52:44;;;;;;;4.30;3.67;;;;;;;;;;10280204;28;20426;-65
2022/05/27 09:03:04;;;;;;;8.00;4.45;;;;;;;;;;10281359;28;20096;-65
2022/05/27 09:08:03;;;;;;;9.10;3.53;;;;;;;;;;10281353;28;20080;-65
2022/05/27 09:13:13;;;;;;;7.00;3.75;;;;;;;;;;10281787;28;20052;-65
2022/05/27 09:18:19;;;;;;;8.00;3.72;;;;;;;;;;10280912;28;20125;-66
2022/05/27 09:23:34;;;;;;;6.90;3.40;;;;;;;;;;10280161;28;20053;-65
2022/05/27 09:28:40;;;;;;;7.00;3.80;;;;;;;;;;10279334;28;20049;-65
2022/05/27 09:33:38;;;;;;;9.52;3.40;;;;;;;;;;10279203;28;20079;-65
2022/05/27 09:38:51;;;;;;;7.15;3.67;;;;;;;;;;10278995;28;20080;-65
2022/05/27 09:43:54;;;;;;;5.07;3.35;;;;;;;;;;10279900;28;20084;-66
2022/05/27 09:48:53;;;;;;;3.83;3.15;;;;;;;;;;10279529;28;20045;-65
2022/05/27 09:53:52;;;;;;;6.95;3.05;;;;;;;;;;10278982;28;20073;-65
2022/05/27 09:58:52;;;;;;;5.60;3.08;;;;;;;;;;10278148;28;20072;-65
2022/05/27 10:03:59;;;;;;;7.57;3.60;;;;;;;;;;10277217;28;20070;-65
2022/05/27 10:08:58;;;;;;;7.70;3.65;;;;;;;;;;10278362;28;20052;-65
2022/05/27 10:14:13;;;;;;;4.55;4.15;;;;;;;;;;10278056;28;20049;-65
2022/05/27 10:19:13;;;;;;;6.10;3.53;;;;;;;;;;10278255;28;20088;-65
2022/05/27 10:24:14;;;;;;;7.53;3.30;;;;;;;;;;10277850;28;20049;-65
2022/05/27 10:29:15;;;;;;;16.08;4.60;;;;;;;;;;10277345;28;20056;-65
2022/05/27 10:34:27;;;;;;;9.77;5.68;;;;;;;;;;10277081;28;20075;-65
2022/05/27 10:39:28;;;;;;;6.00;3.47;;;;;;;;;;10276893;28;20079;-65
2022/05/27 10:44:34;;;;;;;6.82;4.28;;;;;;;;;;10276503;28;20092;-65
2022/05/27 10:49:45;;;;;;;8.40;4.93;;;;;;;;;;10276647;28;20044;-65
2022/05/27 10:54:47;;;;;;;11.50;5.85;;;;;;;;;;10276580;28;20159;-65
2022/05/27 11:05:11;;;;;;;6.18;3.20;;;;;;;;;;10276040;28;20088;-65
2022/05/27 11:10:22;;;;;;;6.25;3.58;;;;;;;;;;10276171;28;20065;-65
2022/05/27 11:15:31;;;;;;;5.53;3.25;;;;;;;;;;10275770;28;20052;-65
2022/05/27 11:20:44;;;;;;;5.43;2.65;;;;;;;;;;10275401;28;20133;-65
2022/05/27 11:25:49;;;;;;;5.15;2.60;;;;;;;;;;10276078;28;20041;-65
2022/05/27 11:30:55;;;;;;;7.68;5.70;;;;;;;;;;10275583;28;20057;-65
2022/05/27 11:36:09;;;;;;;7.18;3.40;;;;;;;;;;10275674;28;20064;-65
2022/05/27 11:41:11;;;;;;;7.28;3.22;;;;;;;;;;10275726;28;20095;-65
2022/05/27 11:46:27;;;;;;;9.55;4.10;;;;;;;;;;10275602;28;20053;-65
2022/05/27 11:51:34;;;;;;;5.78;2.75;;;;;;;;;;10275484;28;20049;-65
2022/05/27 11:56:38;;;;;;;7.63;3.05;;;;;;;;;;10275662;28;20068;-65
2022/05/27 12:01:37;;;;;;;7.18;3.55;;;;;;;;;;10275424;28;20552;-65
2022/05/27 12:06:39;;;;;;;12.50;3.20;;;;;;;;;;10275406;28;20048;-65
2022/05/27 12:11:39;;;;;;;4.32;3.78;;;;;;;;;;10275100;28;20449;-65
2022/05/27 12:16:39;;;;;;;6.15;4.20;;;;;;;;;;10273137;28;20053;-65
2022/05/27 12:21:40;;;;;;;8.57;4.38;;;;;;;;;;10274842;28;20072;-65
2022/05/27 12:26:39;;;;;;;5.75;3.45;;;;;;;;;;10276796;28;20491;-66
2022/05/27 12:31:38;;;;;;;3.70;3.03;;;;;;;;;;10282640;28;20485;-65
2022/05/27 12:36:36;;;;;;;4.43;3.30;;;;;;;;;;10282271;28;20067;-66
2022/05/27 12:41:37;;;;;;;4.60;2.97;;;;;;;;;;10281849;28;20072;-65
2022/05/27 12:46:41;;;;;;;7.13;2.65;;;;;;;;;;10282211;28;20049;-65
2022/05/27 12:51:40;;;;;;;4.38;2.55;;;;;;;;;;10281083;28;20045;-65
2022/05/27 13:02:30;;;;;;;6.57;2.58;;;;;;;;;;10281354;28;20087;-64
2022/05/27 13:07:43;;;;;;;3.38;2.78;;;;;;;;;;10281314;28;20466;-64
2022/05/27 13:12:56;;;;;;;6.27;3.10;;;;;;;;;;10281114;28;20045;-65
2022/05/27 13:18:06;;;;;;;6.50;3.00;;;;;;;;;;10279054;28;20049;-65
2022/05/27 13:23:12;;;;;;;6.32;2.55;;;;;;;;;;10279705;28;20072;-65
2022/05/27 13:28:13;;;;;;;3.08;2.20;;;;;;;;;;10280231;28;20434;-65
2022/05/27 13:33:12;;;;;;;5.65;2.30;;;;;;;;;;10280285;28;20498;-65
2022/05/27 13:38:12;;;;;;;3.25;2.10;;;;;;;;;;10279178;28;20033;-65
2022/05/27 13:43:17;;;;;;;2.83;2.40;;;;;;;;;;10279879;28;20072;-65
2022/05/27 13:48:19;;;;;;;4.47;2.60;;;;;;;;;;10279898;28;20041;-65
2022/05/27 13:53:19;;;;;;;6.95;2.45;;;;;;;;;;10279621;28;20049;-65
2022/05/27 13:58:22;;;;;;;4.45;2.80;;;;;;;;;;10278957;28;20076;-65
2022/05/27 14:03:25;;;;;;;3.38;2.92;;;;;;;;;;10278030;28;20088;-65
2022/05/27 14:08:33;;;;;;;8.18;3.97;;;;;;;;;;10277875;28;20048;-65
2022/05/27 14:13:33;;;;;;;8.20;2.22;;;;;;;;;;10277603;28;20306;-64
2022/05/27 14:18:32;;;;;;;4.18;3.40;;;;;;;;;;10278348;28;20040;-65
2022/05/27 14:23:32;;;;;;;4.88;1.70;;;;;;;;;;10277065;28;20076;-65
2022/05/27 14:28:33;;;;;;;3.30;2.35;;;;;;;;;;10277384;28;20510;-65
2022/05/27 14:33:32;;;;;;;3.42;2.80;;;;;;;;;;10277075;28;20040;-65
2022/05/27 14:38:33;;;;;;;3.20;2.83;;;;;;;;;;10276761;28;20037;-65
2022/05/27 14:43:37;;;;;;;5.18;2.83;;;;;;;;;;10276456;28;20107;-65
2022/05/27 14:48:37;;;;;;;4.22;1.73;;;;;;;;;;10276584;28;20125;-64
2022/05/27 14:53:35;;;;;;;2.58;2.20;;;;;;;;;;10276290;28;20069;-65
2022/05/27 14:58:36;;;;;;;3.20;2.10;;;;;;;;;;10276218;28;20076;-65
2022/05/27 15:03:39;;;;;;;3.28;2.58;;;;;;;;;;10276109;28;20068;-65
2022/05/27 15:08:37;;;;;;;7.30;4.27;;;;;;;;;;10275936;28;20052;-65
2022/05/27 15:13:51;;;;;;;3.53;2.08;;;;;;;;;;10275385;28;20071;-65
2022/05/27 15:18:49;;;;;;;;;;;;;;;;;;10275712;28;20059;-65
2022/05/27 15:23:50;;;;;;;5.35;2.30;;;;;;;;;;10275266;28;19936;-65
2022/05/27 15:34:13;;;;;;;3.42;2.58;;;;;;;;;;10275251;28;20088;-65
2022/05/27 15:39:12;;;;;;;3.75;2.28;;;;;;;;;;10275015;28;20045;-65
2022/05/27 15:44:11;;;;;;;6.72;2.10;;;;;;;;;;10275584;28;20088;-65
2022/05/27 15:49:10;;;;;;;4.93;2.88;;;;;;;;;;10275433;28;20053;-64
2022/05/27 15:54:08;;;;;;;3.00;2.28;;;;;;;;;;10274795;28;20049;-65
2022/05/27 15:59:07;;;;;;;2.90;2.42;;;;;;;;;;10276375;28;20041;-64
2022/05/27 16:04:06;;;;;;;2.25;1.98;;;;;;;;;;10280793;28;20202;-65
2022/05/27 16:09:05;;;;;;;4.60;2.40;;;;;;;;;;10282536;28;20525;-65
2022/05/27 16:14:09;;;;;;;6.22;2.67;;;;;;;;;;10282872;28;20072;-64
2022/05/27 16:19:09;;;;;;;2.42;2.17;;;;;;;;;;10283294;28;20045;-65
2022/05/27 16:24:08;;;;;;;5.05;2.58;;;;;;;;;;10282006;28;20087;-65
2022/05/27 16:29:06;;;;;;;8.32;2.58;;;;;;;;;;10282363;28;20068;-64
2022/05/27 16:34:04;;;;;;;2.38;2.08;;;;;;;;;;10281696;28;20049;-65
2022/05/27 16:39:04;;;;;;;5.07;3.60;;;;;;;;;;10282218;28;20041;-65
2022/05/27 16:44:09;;;;;;;7.03;5.10;;;;;;;;;;10281388;28;20073;-65
2022/05/27 16:49:08;;;;;;;4.35;3.40;;;;;;;;;;10281067;28;20048;-65
2022/05/27 16:54:08;;;;;;;5.72;3.05;;;;;;;;;;10281108;28;20069;-63
2022/05/27 16:59:06;;;;;;;7.90;5.82;;;;;;;;;;10280607;28;20532;-63
2022/05/27 17:04:04;;;;;;;10.45;6.47;;;;;;;;;;10274047;28;20089;-63
2022/05/27 17:09:03;;;;;;;7.18;4.80;;;;;;;;;;10279594;28;20505;-64
2022/05/27 17:14:05;;;;;;;5.93;4.13;;;;;;;;;;10274199;28;20467;-64
2022/05/27 17:19:03;;;;;;;19.00;13.80;;;;;;;;;;10276099;28;20482;-63
2022/05/27 17:24:02;;;;;;;20.40;15.02;;;;;;;;;;10279284;28;20088;-62
2022/05/27 17:29:00;;;;;;;13.95;10.70;;;;;;;;;;10271053;28;20498;-62
2022/05/27 17:33:59;;;;;;;8.48;7.20;;;;;;;;;;10238707;28;20061;-61
2022/05/27 17:38:58;;;;;;;6.35;5.15;;;;;;;;;;10239390;28;20049;-62
2022/05/27 17:43:56;;;;;;;8.20;5.95;;;;;;;;;;10238617;28;20100;-62
2022/05/27 17:54:13;;;;;;;10.52;7.07;;;;;;;;;;10255279;28;20072;-62
2022/05/27 17:59:11;;;;;;;7.30;3.30;;;;;;;;;;10274270;28;20076;-61
2022/05/27 18:04:10;;;;;;;2.70;2.17;;;;;;;;;;10274098;28;20421;-61
2022/05/27 18:09:08;;;;;;;8.38;4.05;;;;;;;;;;10277332;28;20481;-61
2022/05/27 18:14:08;;;;;;;3.70;2.30;;;;;;;;;;10275503;28;20444;-61
2022/05/27 18:19:06;;;;;;;2.20;1.80;;;;;;;;;;10275911;28;20088;-61
2022/05/27 18:24:04;;;;;;;5.00;2.80;;;;;;;;;;10277403;28;20080;-61
2022/05/27 18:29:09;;;;;;;2.50;2.03;;;;;;;;;;10277440;28;20049;-61
2022/05/27 18:34:09;;;;;;;5.50;1.92;;;;;;;;;;10277975;28;20044;-61
2022/05/27 18:39:07;;;;;;;2.67;2.35;;;;;;;;;;10276899;28;20517;-61
2022/05/27 18:44:05;;;;;;;2.90;2.30;;;;;;;;;;10276816;28;20171;-61
2022/05/27 18:49:05;;;;;;;5.68;2.10;;;;;;;;;;10276547;28;20056;-61
2022/05/27 18:54:03;;;;;;;3.15;2.10;;;;;;;;;;10276599;28;20079;-62
2022/05/27 18:59:02;;;;;;;3.55;2.65;;;;;;;;;;10276366;28;20076;-61
2022/05/27 19:04:00;;;;;;;2.80;2.20;;;;;;;;;;10276744;28;20087;-61
2022/05/27 19:09:00;;;;;;;2.20;2.00;;;;;;;;;;10275703;28;20053;-61
2022/05/27 19:13:58;;;;;;;2.53;2.10;;;;;;;;;;10276482;28;20056;-61
2022/05/27 19:24:14;;;;;;;3.33;2.25;;;;;;;;;;10275572;28;20080;-61
2022/05/27 19:29:12;;;;;;;5.20;2.00;;;;;;;;;;10275327;28;20061;-61
2022/05/27 19:34:10;;;;;;;3.28;2.10;;;;;;;;;;10275916;28;20115;-61
2022/05/27 19:39:08;;;;;;;2.40;2.13;;;;;;;;;;10288587;28;20052;-61
2022/05/27 19:44:08;;;;;;;2.63;2.25;;;;;;;;;;10289430;28;20091;-61
2022/05/27 19:49:06;;;;;;;2.20;2.00;;;;;;;;;;10288803;28;20178;-61
2022/05/27 19:54:05;;;;;;;4.28;1.98;;;;;;;;;;10288671;28;20044;-62
2022/05/27 20:09:36;;;;;;;2.70;2.28;;;;;;;;;;10288485;28;20068;-61
2022/05/27 20:14:34;;;;;;;5.18;2.42;;;;;;;;;;10288389;28;20494;-61
2022/05/27 20:19:34;;;;;;;2.80;2.30;;;;;;;;;;10288275;28;20044;-61
2022/05/27 20:24:33;;;;;;;2.67;2.40;;;;;;;;;;10288484;28;20080;-61
2022/05/27 20:29:31;;;;;;;2.08;1.70;;;;;;;;;;10288659;28;20422;-60
2022/05/27 20:34:29;;;;;;;2.25;2.03;;;;;;;;;;10287948;28;20458;-61
2022/05/27 20:39:31;;;;;;;4.80;2.30;;;;;;;;;;10287998;28;20049;-61
2022/05/27 20:44:29;;;;;;;3.75;2.28;;;;;;;;;;10288436;28;20072;-61
2022/05/27 20:49:28;;;;;;;5.00;2.00;;;;;;;;;;10282671;28;20053;-60
2022/05/27 20:54:26;;;;;;;2.80;2.30;;;;;;;;;;10281072;28;20395;-60
2022/05/27 20:59:27;;;;;;;2.80;2.53;;;;;;;;;;10280891;28;20037;-61
2022/05/27 21:04:26;;;;;;;3.45;2.58;;;;;;;;;;10280900;28;20087;-60
2022/05/27 21:09:25;;;;;;;5.25;2.47;;;;;;;;;;10280242;28;20052;-60
2022/05/27 21:14:24;;;;;;;3.05;2.55;;;;;;;;;;10280964;28;20049;-60
2022/05/27 21:19:25;;;;;;;5.72;2.35;;;;;;;;;;10281145;28;20060;-60
2022/05/27 21:24:24;;;;;;;3.08;2.30;;;;;;;;;;10279702;28;20089;-60
2022/05/27 21:29:23;;;;;;;3.88;2.40;;;;;;;;;;10279987;28;20049;-59
2022/05/27 21:34:21;;;;;;;3.10;2.53;;;;;;;;;;10279602;28;20048;-61
2022/05/27 21:39:21;;;;;;;4.68;2.53;;;;;;;;;;10280069;28;20041;-61
2022/05/27 21:44:19;;;;;;;5.57;2.53;;;;;;;;;;10279867;28;20080;-59
2022/05/27 21:49:17;;;;;;;4.22;2.65;;;;;;;;;;10279212;28;20040;-58
2022/05/27 21:54:15;;;;;;;3.75;2.20;;;;;;;;;;10278901;28;20037;-59
2022/05/27 21:59:15;;;;;;;2.92;2.47;;;;;;;;;;10277724;28;20052;-59
2022/05/27 22:04:14;;;;;;;3.47;2.25;;;;;;;;;;10278241;28;20485;-60
2022/05/27 22:12:42;;;;;;;3.45;2.00;;;;;;;;;;10278206;28;20073;-59
2022/05/27 22:14:33;;;;;;;4.20;2.40;;;;;;;;;;10278270;28;20040;-60
2022/05/27 22:19:31;;;;;;;3.03;2.38;;;;;;;;;;10278642;28;20081;-60
2022/05/27 22:24:29;;;;;;;3.53;2.78;;;;;;;;;;10278339;28;20076;-60
2022/05/27 22:29:28;;;;;;;3.08;2.67;;;;;;;;;;10277905;28;20068;-60
2022/05/27 22:34:27;;;;;;;3.83;2.53;;;;;;;;;;10277319;28;20048;-60
2022/05/27 22:39:26;;;;;;;4.60;2.50;;;;;;;;;;10277302;28;20041;-61
2022/05/27 22:44:25;;;;;;;2.58;2.22;;;;;;;;;;10276880;28;20358;-60
2022/05/27 22:49:23;;;;;;;2.47;2.28;;;;;;;;;;10277254;28;20045;-60
2022/05/27 22:54:23;;;;;;;3.78;2.30;;;;;;;;;;10276824;28;20076;-60
2022/05/27 22:59:21;;;;;;;3.05;2.60;;;;;;;;;;10276494;28;20071;-61
2022/05/27 23:04:20;;;;;;;3.10;2.38;;;;;;;;;;10276235;28;20084;-61
2022/05/27 23:09:18;;;;;;;2.50;2.30;;;;;;;;;;10276540;28;20083;-61
2022/05/27 23:19:33;;;;;;;3.00;2.03;;;;;;;;;;10275977;28;20041;-60
2022/05/27 23:24:32;;;;;;;3.40;2.70;;;;;;;;;;10275652;28;20083;-60
2022/05/27 23:29:31;;;;;;;6.28;2.53;;;;;;;;;;10275748;28;20414;-60
2022/05/27 23:34:30;;;;;;;4.85;2.42;;;;;;;;;;10275306;28;20075;-60
2022/05/27 23:39:28;;;;;;;7.20;2.72;;;;;;;;;;10276099;28;20049;-60
2022/05/27 23:44:26;;;;;;;3.75;2.63;;;;;;;;;;10275102;28;20080;-60
2022/05/27 23:49:26;;;;;;;5.40;2.28;;;;;;;;;;10275500;28;20419;-61
2022/05/27 23:54:24;;;;;;;2.47;2.22;;;;;;;;;;10275284;28;20076;-60
2022/05/27 23:59:23;;;;;;;4.10;2.38;;;;;;;;;;10275200;28;20037;-60
